createdAt,value
2018-11-03T00:00:17.176Z,57.40
2018-11-03T00:02:47.272Z,57.40
2018-11-03T00:05:17.284Z,57.40
2018-11-03T00:07:47.066Z,57.50
2018-11-03T00:10:16.395Z,57.40
2018-11-03T00:12:45.741Z,57.40
2018-11-03T00:15:15.154Z,57.40
2018-11-03T00:17:44.376Z,57.40
2018-11-03T00:20:13.605Z,57.40
2018-11-03T00:22:42.913Z,57.30
2018-11-03T00:25:12.109Z,57.30
2018-11-03T00:27:41.340Z,57.30
2018-11-03T00:30:12.315Z,58.00
2018-11-03T00:32:41.919Z,57.30
2018-11-03T00:35:11.349Z,57.20
2018-11-03T00:37:40.548Z,57.20
2018-11-03T00:40:12.111Z,57.20
2018-11-03T00:42:41.637Z,57.20
2018-11-03T00:45:12.010Z,57.10
2018-11-03T00:47:42.389Z,57.10
2018-11-03T00:50:13.167Z,57.10
2018-11-03T00:52:42.876Z,57.20
2018-11-03T00:55:12.681Z,57.10
2018-11-03T00:57:42.399Z,57.20
2018-11-03T01:00:13.675Z,57.20
2018-11-03T01:02:44.280Z,57.10
2018-11-03T01:05:13.887Z,57.10
2018-11-03T01:07:43.715Z,57.60
2018-11-03T01:10:13.107Z,57.10
2018-11-03T01:12:42.705Z,57.00
2018-11-03T01:15:14.185Z,57.10
2018-11-03T01:17:43.560Z,57.10
2018-11-03T01:20:14.191Z,57.00
2018-11-03T01:22:43.524Z,57.10
2018-11-03T01:25:12.725Z,57.00
2018-11-03T01:27:41.957Z,57.10
2018-11-03T01:30:13.638Z,57.10
2018-11-03T01:32:43.068Z,57.00
2018-11-03T01:35:12.173Z,57.00
2018-11-03T01:37:41.469Z,57.00
2018-11-03T01:40:12.384Z,57.00
2018-11-03T01:42:41.708Z,57.00
2018-11-03T01:45:10.927Z,56.90
2018-11-03T01:47:40.107Z,56.90
2018-11-03T01:50:10.847Z,57.00
2018-11-03T01:52:41.032Z,57.10
2018-11-03T01:55:10.266Z,57.10
2018-11-03T01:57:39.601Z,57.10
2018-11-03T02:00:09.629Z,57.10
2018-11-03T02:02:39.076Z,56.90
2018-11-03T02:05:08.869Z,57.10
2018-11-03T02:07:38.105Z,57.00
2018-11-03T02:10:08.432Z,57.60
2018-11-03T02:12:37.764Z,56.80
2018-11-03T02:15:07.266Z,57.00
2018-11-03T02:17:36.490Z,56.90
2018-11-03T02:20:06.844Z,56.90
2018-11-03T02:22:36.188Z,56.90
2018-11-03T02:25:05.415Z,56.90
2018-11-03T02:27:34.621Z,56.80
2018-11-03T02:30:03.893Z,56.90
2018-11-03T02:32:33.185Z,56.90
2018-11-03T02:35:02.409Z,56.80
2018-11-03T02:37:31.617Z,56.70
2018-11-03T02:40:00.841Z,56.90
2018-11-03T02:42:30.189Z,56.90
2018-11-03T02:44:59.413Z,56.90
2018-11-03T02:47:28.735Z,56.70
2018-11-03T02:49:58.015Z,56.70
2018-11-03T02:52:27.423Z,57.30
2018-11-03T02:54:56.745Z,56.90
2018-11-03T02:57:26.018Z,56.80
2018-11-03T02:59:55.236Z,56.70
2018-11-03T03:02:24.587Z,56.90
2018-11-03T03:04:53.916Z,56.70
2018-11-03T03:07:23.185Z,56.60
2018-11-03T03:09:52.384Z,56.60
2018-11-03T03:12:22.092Z,56.60
2018-11-03T03:14:51.325Z,56.70
2018-11-03T03:17:20.562Z,56.70
2018-11-03T03:19:49.792Z,57.30
2018-11-03T03:22:19.090Z,56.80
2018-11-03T03:24:48.309Z,56.80
2018-11-03T03:27:17.590Z,56.80
2018-11-03T03:29:46.823Z,56.80
2018-11-03T03:32:16.048Z,56.80
2018-11-03T03:34:45.269Z,56.70
2018-11-03T03:37:14.493Z,56.60
2018-11-03T03:39:43.684Z,56.50
2018-11-03T03:42:12.979Z,56.60
2018-11-03T03:44:42.204Z,56.60
2018-11-03T03:47:11.413Z,56.50
2018-11-03T03:49:40.608Z,56.50
2018-11-03T03:52:09.910Z,57.30
2018-11-03T03:54:39.210Z,56.50
2018-11-03T03:57:08.440Z,56.50
2018-11-03T03:59:37.739Z,56.80
2018-11-03T04:02:07.238Z,56.50
2018-11-03T04:04:36.444Z,56.70
2018-11-03T04:07:05.985Z,56.50
2018-11-03T04:09:35.194Z,56.50
2018-11-03T04:12:04.509Z,56.50
2018-11-03T04:14:33.762Z,56.60
2018-11-03T04:17:03.033Z,56.50
2018-11-03T04:19:32.412Z,56.80
2018-11-03T04:22:01.900Z,56.70
2018-11-03T04:24:31.441Z,56.90
2018-11-03T04:27:00.873Z,57.00
2018-11-03T04:29:30.308Z,56.80
2018-11-03T04:31:59.777Z,56.90
2018-11-03T04:34:29.226Z,57.00
2018-11-03T04:36:58.700Z,57.00
2018-11-03T04:39:28.176Z,56.90
2018-11-03T04:41:57.630Z,56.90
2018-11-03T04:44:27.078Z,57.00
2018-11-03T04:46:56.325Z,56.80
2018-11-03T04:49:32.204Z,57.20
2018-11-03T04:52:01.525Z,57.10
2018-11-03T04:54:30.748Z,57.00
2018-11-03T04:57:00.084Z,57.00
2018-11-03T04:59:29.415Z,57.10
2018-11-03T05:01:58.811Z,57.00
2018-11-03T05:04:28.032Z,57.10
2018-11-03T05:07:03.710Z,57.10
2018-11-03T05:09:32.966Z,57.00
2018-11-03T05:12:02.254Z,57.10
2018-11-03T05:14:31.537Z,57.20
2018-11-03T05:17:00.887Z,57.30
2018-11-03T05:19:30.140Z,57.00
2018-11-03T05:21:59.459Z,57.10
2018-11-03T05:24:28.662Z,57.00
2018-11-03T05:26:57.893Z,57.20
2018-11-03T05:29:27.184Z,57.10
2018-11-03T05:31:56.664Z,57.10
2018-11-03T05:34:26.303Z,57.00
2018-11-03T05:36:55.770Z,57.10
2018-11-03T05:39:25.008Z,57.10
2018-11-03T05:41:54.276Z,57.20
2018-11-03T05:44:23.638Z,57.40
2018-11-03T05:46:52.782Z,57.10
2018-11-03T05:49:22.050Z,57.00
2018-11-03T05:51:51.430Z,57.10
2018-11-03T05:54:20.677Z,57.20
2018-11-03T05:56:49.943Z,57.10
2018-11-03T05:59:19.183Z,57.10
2018-11-03T06:01:48.476Z,57.10
2018-11-03T06:04:17.788Z,57.10
2018-11-03T06:06:47.313Z,57.10
2018-11-03T06:09:16.611Z,57.30
2018-11-03T06:11:45.906Z,57.10
2018-11-03T06:14:15.371Z,57.30
2018-11-03T06:16:44.639Z,56.90
2018-11-03T06:19:14.114Z,56.90
2018-11-03T06:21:43.423Z,56.90
2018-11-03T06:24:13.282Z,56.90
2018-11-03T06:26:42.542Z,56.90
2018-11-03T06:29:11.768Z,56.90
2018-11-03T06:31:41.502Z,57.30
2018-11-03T06:34:10.845Z,57.30
2018-11-03T06:36:40.090Z,57.40
2018-11-03T06:39:09.729Z,57.60
2018-11-03T06:41:38.915Z,57.80
2018-11-03T06:44:08.209Z,58.50
2018-11-03T06:46:37.491Z,58.70
2018-11-03T06:49:11.817Z,58.00
2018-11-03T06:51:41.055Z,57.70
2018-11-03T06:54:10.821Z,57.00
2018-11-03T06:56:40.329Z,57.10
2018-11-03T06:59:09.559Z,57.30
2018-11-03T07:01:38.846Z,57.30
2018-11-03T07:04:08.351Z,56.90
2018-11-03T07:06:37.620Z,56.90
2018-11-03T07:09:10.139Z,56.90
2018-11-03T07:11:40.034Z,56.80
2018-11-03T07:14:10.115Z,56.80
2018-11-03T07:16:39.366Z,56.80
2018-11-03T07:19:08.603Z,56.80
2018-11-03T07:21:37.954Z,56.90
2018-11-03T07:24:07.182Z,56.80
2018-11-03T07:26:36.466Z,56.80
2018-11-03T07:29:05.976Z,56.80
2018-11-03T07:31:35.304Z,56.70
2018-11-03T07:34:04.695Z,56.70
2018-11-03T07:36:34.073Z,56.70
2018-11-03T07:39:03.637Z,56.70
2018-11-03T07:41:33.091Z,56.60
2018-11-03T07:45:05.173Z,56.60
2018-11-03T07:47:35.470Z,56.60
2018-11-03T07:50:06.188Z,56.60
2018-11-03T07:52:35.533Z,56.60
2018-11-03T07:55:04.853Z,56.50
2018-11-03T07:57:34.226Z,56.40
2018-11-03T08:00:03.794Z,56.30
2018-11-03T08:02:33.250Z,56.40
2018-11-03T08:05:02.575Z,56.50
2018-11-03T08:07:31.832Z,56.20
2018-11-03T08:10:01.144Z,56.50
2018-11-03T08:12:30.614Z,56.50
2018-11-03T08:14:59.922Z,56.50
2018-11-03T08:17:29.268Z,56.50
2018-11-03T08:19:58.573Z,56.60
2018-11-03T08:22:27.943Z,56.60
2018-11-03T08:24:57.207Z,56.50
2018-11-03T08:27:26.475Z,56.40
2018-11-03T08:29:55.736Z,56.40
2018-11-03T08:32:25.360Z,56.40
2018-11-03T08:34:54.632Z,56.40
2018-11-03T08:37:23.913Z,56.40
2018-11-03T08:39:53.201Z,56.40
2018-11-03T08:42:22.547Z,57.20
2018-11-03T08:44:51.891Z,57.00
2018-11-03T08:47:21.122Z,56.90
2018-11-03T08:49:50.952Z,57.10
2018-11-03T08:52:20.288Z,56.70
2018-11-03T08:54:50.349Z,56.30
2018-11-03T08:57:19.671Z,56.20
2018-11-03T08:59:49.074Z,56.50
2018-11-03T09:02:18.422Z,56.70
2018-11-03T09:04:47.684Z,56.70
2018-11-03T09:07:17.011Z,56.40
2018-11-03T09:09:46.325Z,57.70
2018-11-03T09:12:15.718Z,56.10
2018-11-03T09:14:45.042Z,55.90
2018-11-03T09:17:14.385Z,55.40
2018-11-03T09:19:43.690Z,55.90
2018-11-03T09:22:12.989Z,57.00
2018-11-03T09:24:42.329Z,56.20
2018-11-03T09:27:11.648Z,56.70
2018-11-03T09:29:41.017Z,56.00
2018-11-03T09:32:10.436Z,56.00
2018-11-03T09:34:39.729Z,56.00
2018-11-03T09:37:09.311Z,55.70
2018-11-03T09:39:38.585Z,55.70
2018-11-03T09:42:07.909Z,56.10
2018-11-03T09:44:37.196Z,55.50
2018-11-03T09:47:06.428Z,55.40
2018-11-03T09:49:35.838Z,55.30
2018-11-03T09:52:05.287Z,55.30
2018-11-03T09:54:34.602Z,55.10
2018-11-03T09:57:03.845Z,53.50
2018-11-03T09:59:33.132Z,55.70
2018-11-03T10:02:02.438Z,55.20
2018-11-03T10:04:31.697Z,54.60
2018-11-03T10:07:01.013Z,55.00
2018-11-03T10:09:30.921Z,54.70
2018-11-03T10:12:00.220Z,54.90
2018-11-03T10:14:29.437Z,54.80
2018-11-03T10:16:58.817Z,54.90
2018-11-03T10:19:28.224Z,55.00
2018-11-03T10:21:57.503Z,54.90
2018-11-03T10:24:27.770Z,56.10
2018-11-03T10:26:57.044Z,55.30
2018-11-03T10:29:26.361Z,54.70
2018-11-03T10:31:55.617Z,54.50
2018-11-03T10:34:24.812Z,55.40
2018-11-03T10:36:54.082Z,54.40
2018-11-03T10:39:23.444Z,52.50
2018-11-03T10:41:52.688Z,52.90
2018-11-03T10:44:22.080Z,53.40
2018-11-03T10:46:51.472Z,55.60
2018-11-03T10:49:20.690Z,55.80
2018-11-03T10:51:49.984Z,55.50
2018-11-03T10:54:19.410Z,55.90
2018-11-03T10:56:48.681Z,57.60
2018-11-03T10:59:17.981Z,56.90
2018-11-03T11:01:52.292Z,56.70
2018-11-03T11:04:26.590Z,56.60
2018-11-03T11:07:01.117Z,57.50
2018-11-03T11:09:35.605Z,57.30
2018-11-03T11:12:10.876Z,58.30
2018-11-03T11:14:40.101Z,58.80
2018-11-03T11:17:09.489Z,57.80
2018-11-03T11:19:38.888Z,59.40
2018-11-03T11:22:08.256Z,58.80
2018-11-03T11:24:37.666Z,59.00
2018-11-03T11:27:06.940Z,58.80
2018-11-03T11:29:36.207Z,58.80
2018-11-03T11:32:05.876Z,59.30
2018-11-03T11:34:35.183Z,60.80
2018-11-03T11:37:04.532Z,59.80
2018-11-03T11:39:33.813Z,59.70
2018-11-03T11:42:03.112Z,60.40
2018-11-03T11:44:32.674Z,61.10
2018-11-03T11:47:01.926Z,60.60
2018-11-03T11:49:31.293Z,61.10
2018-11-03T11:52:00.542Z,60.30
2018-11-03T11:54:29.930Z,60.00
2018-11-03T11:56:59.374Z,60.70
2018-11-03T11:59:28.697Z,60.60
2018-11-03T12:01:57.947Z,59.90
2018-11-03T12:04:27.204Z,60.00
2018-11-03T12:06:56.985Z,60.50
2018-11-03T12:09:26.270Z,60.80
2018-11-03T12:11:55.524Z,61.30
2018-11-03T12:14:24.776Z,61.00
2018-11-03T12:16:54.063Z,61.30
2018-11-03T12:19:23.370Z,60.80
2018-11-03T12:21:52.693Z,61.00
2018-11-03T12:24:22.011Z,61.20
2018-11-03T12:26:51.316Z,61.20
2018-11-03T12:29:20.688Z,61.10
2018-11-03T12:31:50.061Z,61.00
2018-11-03T12:34:19.325Z,61.10
2018-11-03T12:36:48.666Z,61.30
2018-11-03T12:39:17.976Z,61.30
2018-11-03T12:41:47.224Z,61.40
2018-11-03T12:44:16.546Z,61.50
2018-11-03T12:46:51.012Z,61.30
2018-11-03T12:49:20.341Z,61.60
2018-11-03T12:51:50.368Z,61.60
2018-11-03T12:54:19.629Z,61.60
2018-11-03T12:56:48.917Z,61.40
2018-11-03T12:59:18.234Z,61.60
2018-11-03T13:01:47.725Z,61.50
2018-11-03T13:04:17.090Z,61.60
2018-11-03T13:06:46.558Z,61.60
2018-11-03T13:09:15.815Z,61.60
2018-11-03T13:11:45.101Z,61.90
2018-11-03T13:14:14.912Z,61.60
2018-11-03T13:16:44.210Z,61.60
2018-11-03T13:19:13.460Z,61.60
2018-11-03T13:21:42.761Z,61.60
2018-11-03T13:24:12.084Z,61.60
2018-11-03T13:26:41.548Z,61.60
2018-11-03T13:29:10.816Z,61.80
2018-11-03T13:31:40.128Z,61.70
2018-11-03T13:34:09.644Z,61.50
2018-11-03T13:36:38.960Z,61.50
2018-11-03T13:39:09.549Z,61.60
2018-11-03T13:41:38.778Z,61.70
2018-11-03T13:44:08.740Z,61.70
2018-11-03T13:46:38.013Z,61.60
2018-11-03T13:49:07.237Z,62.50
2018-11-03T13:51:36.589Z,61.00
2018-11-03T13:54:05.944Z,61.50
2018-11-03T13:56:35.351Z,61.50
2018-11-03T13:59:04.654Z,61.50
2018-11-03T14:01:33.902Z,61.20
2018-11-03T14:04:03.275Z,62.00
2018-11-03T14:06:32.604Z,62.40
2018-11-03T14:09:01.913Z,63.10
2018-11-03T14:11:31.218Z,62.30
2018-11-03T14:14:00.513Z,60.60
2018-11-03T14:16:29.811Z,61.20
2018-11-03T14:18:59.114Z,60.90
2018-11-03T14:21:28.356Z,61.00
2018-11-03T14:23:57.657Z,61.60
2018-11-03T14:26:27.293Z,61.60
2018-11-03T14:28:56.562Z,61.20
2018-11-03T14:31:25.847Z,61.20
2018-11-03T14:33:55.190Z,59.80
2018-11-03T14:36:24.746Z,60.10
2018-11-03T14:38:54.112Z,59.80
2018-11-03T14:41:23.359Z,59.30
2018-11-03T14:43:52.681Z,60.10
2018-11-03T14:46:21.985Z,57.80
2018-11-03T14:48:51.265Z,58.10
2018-11-03T14:51:20.485Z,58.30
2018-11-03T14:53:49.794Z,59.20
2018-11-03T14:56:19.107Z,59.00
2018-11-03T14:58:48.393Z,58.70
2018-11-03T15:01:17.693Z,58.80
2018-11-03T15:03:47.136Z,59.50
2018-11-03T15:06:16.403Z,60.80
2018-11-03T15:08:45.714Z,61.40
2018-11-03T15:11:15.042Z,61.40
2018-11-03T15:13:44.422Z,61.00
2018-11-03T15:16:13.786Z,64.40
2018-11-03T15:18:43.064Z,67.20
2018-11-03T15:21:12.294Z,64.70
2018-11-03T15:23:41.645Z,64.20
2018-11-03T15:26:10.873Z,63.70
2018-11-03T15:28:40.127Z,63.40
2018-11-03T15:31:09.514Z,63.30
2018-11-03T15:33:39.192Z,63.20
2018-11-03T15:36:08.541Z,63.10
2018-11-03T15:38:37.784Z,63.20
2018-11-03T15:41:07.252Z,63.10
2018-11-03T15:43:36.631Z,63.20
2018-11-03T15:46:06.291Z,63.10
2018-11-03T15:48:35.568Z,62.60
2018-11-03T15:51:04.810Z,62.00
2018-11-03T15:53:34.116Z,61.70
2018-11-03T15:56:03.463Z,61.70
2018-11-03T15:58:32.694Z,62.30
2018-11-03T16:01:01.964Z,62.80
2018-11-03T16:03:31.685Z,63.20
2018-11-03T16:06:01.001Z,63.90
2018-11-03T16:08:30.299Z,63.40
2018-11-03T16:10:59.658Z,64.20
2018-11-03T16:13:29.058Z,64.70
2018-11-03T16:15:58.447Z,64.90
2018-11-03T16:18:27.848Z,64.10
2018-11-03T16:20:57.188Z,64.60
2018-11-03T16:24:29.495Z,63.90
2018-11-03T16:26:58.820Z,63.80
2018-11-03T16:29:28.125Z,62.70
2018-11-03T16:31:57.417Z,62.90
2018-11-03T16:34:26.902Z,63.50
2018-11-03T16:36:56.200Z,61.20
2018-11-03T16:39:25.471Z,60.30
2018-11-03T16:41:56.286Z,61.20
2018-11-03T16:44:25.606Z,61.30
2018-11-03T16:46:54.938Z,61.70
2018-11-03T16:49:24.262Z,62.00
2018-11-03T16:51:53.515Z,61.00
2018-11-03T16:54:23.974Z,60.00
2018-11-03T16:56:53.232Z,58.70
2018-11-03T16:59:22.469Z,59.30
2018-11-03T17:01:51.792Z,60.00
2018-11-03T17:04:21.095Z,60.00
2018-11-03T17:06:50.552Z,60.30
2018-11-03T17:09:20.789Z,60.10
2018-11-03T17:11:51.010Z,60.60
2018-11-03T17:14:20.243Z,60.60
2018-11-03T17:16:49.589Z,60.80
2018-11-03T17:19:18.914Z,60.80
2018-11-03T17:21:48.235Z,60.90
2018-11-03T17:24:17.644Z,61.00
2018-11-03T17:26:46.892Z,60.90
2018-11-03T17:29:16.152Z,60.70
2018-11-03T17:31:45.394Z,60.70
2018-11-03T17:34:14.718Z,59.70
2018-11-03T17:36:44.037Z,59.90
2018-11-03T17:39:13.336Z,59.50
2018-11-03T17:41:42.610Z,59.80
2018-11-03T17:44:12.012Z,60.00
2018-11-03T17:46:41.253Z,60.10
2018-11-03T17:49:10.566Z,60.50
2018-11-03T17:51:39.959Z,58.80
2018-11-03T17:54:09.296Z,59.00
2018-11-03T17:56:38.948Z,59.40
2018-11-03T17:59:08.339Z,59.30
2018-11-03T18:01:37.681Z,59.60
2018-11-03T18:04:06.953Z,59.80
2018-11-03T18:06:36.231Z,59.80
2018-11-03T18:09:06.492Z,59.80
2018-11-03T18:11:35.806Z,59.50
2018-11-03T18:14:05.177Z,59.90
2018-11-03T18:16:34.464Z,59.80
2018-11-03T18:19:03.691Z,59.70
2018-11-03T18:21:33.386Z,59.50
2018-11-03T18:24:02.808Z,59.50
2018-11-03T18:26:32.128Z,59.30
2018-11-03T18:29:01.364Z,59.50
2018-11-03T18:31:30.628Z,58.90
2018-11-03T18:34:00.030Z,59.40
2018-11-03T18:36:29.329Z,59.60
2018-11-03T18:38:59.632Z,59.00
2018-11-03T18:41:29.677Z,58.30
2018-11-03T18:44:00.829Z,58.60
2018-11-03T18:46:31.224Z,58.70
2018-11-03T18:49:00.499Z,58.30
2018-11-03T18:51:29.813Z,58.50
2018-11-03T18:53:59.328Z,58.60
2018-11-03T18:56:28.702Z,58.50
2018-11-03T18:58:58.098Z,58.10
2018-11-03T19:01:27.388Z,57.80
2018-11-03T19:03:56.824Z,57.80
2018-11-03T19:06:32.628Z,57.60
2018-11-03T19:09:01.930Z,57.40
2018-11-03T19:11:31.189Z,57.30
2018-11-03T19:14:00.556Z,57.20
2018-11-03T19:16:29.891Z,57.00
2018-11-03T19:18:59.173Z,57.10
2018-11-03T19:21:28.558Z,57.00
2018-11-03T19:23:58.008Z,57.20
2018-11-03T19:26:27.358Z,57.00
2018-11-03T19:28:56.674Z,56.90
2018-11-03T19:31:25.919Z,56.90
2018-11-03T19:33:55.282Z,56.90
2018-11-03T19:36:24.547Z,56.90
2018-11-03T19:38:53.834Z,56.70
2018-11-03T19:41:23.262Z,56.60
2018-11-03T19:43:52.565Z,57.00
2018-11-03T19:46:21.799Z,56.70
2018-11-03T19:48:51.145Z,56.50
2018-11-03T19:51:20.432Z,56.40
2018-11-03T19:53:49.810Z,56.20
2018-11-03T19:56:19.082Z,57.40
2018-11-03T19:58:48.372Z,58.00
2018-11-03T20:01:17.680Z,57.80
2018-11-03T20:03:47.006Z,57.20
2018-11-03T20:06:16.266Z,57.50
2018-11-03T20:08:45.542Z,57.50
2018-11-03T20:11:14.797Z,57.40
2018-11-03T20:13:44.208Z,57.20
2018-11-03T20:16:13.464Z,57.20
2018-11-03T20:18:42.701Z,57.20
2018-11-03T20:21:12.445Z,57.20
2018-11-03T20:23:41.838Z,56.90
2018-11-03T20:26:11.277Z,56.90
2018-11-03T20:28:40.504Z,56.80
2018-11-03T20:31:09.982Z,56.80
2018-11-03T20:33:39.300Z,56.80
2018-11-03T20:36:08.590Z,56.60
2018-11-03T20:38:37.931Z,56.60
2018-11-03T20:41:07.191Z,56.70
2018-11-03T20:43:36.865Z,56.60
2018-11-03T20:46:07.247Z,56.70
2018-11-03T20:48:36.495Z,56.70
2018-11-03T20:51:08.830Z,56.10
2018-11-03T20:53:39.617Z,56.40
2018-11-03T20:56:09.353Z,56.30
2018-11-03T20:58:38.671Z,56.40
2018-11-03T21:01:08.265Z,56.30
2018-11-03T21:03:37.876Z,56.30
2018-11-03T21:06:07.157Z,56.40
2018-11-03T21:08:36.421Z,56.10
2018-11-03T21:11:05.785Z,56.50
2018-11-03T21:13:35.241Z,56.40
2018-11-03T21:16:05.246Z,56.50
2018-11-03T21:18:35.301Z,56.30
2018-11-03T21:21:04.548Z,56.90
2018-11-03T21:23:39.029Z,56.50
2018-11-03T21:26:08.447Z,56.30
2018-11-03T21:28:38.506Z,56.30
2018-11-03T21:31:08.944Z,56.50
2018-11-03T21:33:50.817Z,56.20
2018-11-03T21:36:30.371Z,56.40
2018-11-03T21:39:17.888Z,56.50
2018-11-03T21:41:51.507Z,56.80
2018-11-03T21:44:21.036Z,56.80
2018-11-03T21:46:50.774Z,57.00
2018-11-03T21:49:20.244Z,57.10
2018-11-03T21:51:49.786Z,57.10
2018-11-03T21:54:19.394Z,57.20
2018-11-03T21:56:52.767Z,56.50
2018-11-03T21:59:25.454Z,56.30
2018-11-03T22:02:00.536Z,56.50
2018-11-03T22:04:34.422Z,56.60
2018-11-03T22:07:04.774Z,56.70
2018-11-03T22:09:35.697Z,56.90
2018-11-03T22:12:06.137Z,56.90
2018-11-03T22:14:36.044Z,56.20
2018-11-03T22:17:05.522Z,55.10
2018-11-03T22:22:22.617Z,56.20
2018-11-03T22:24:51.952Z,56.70
2018-11-03T22:27:21.200Z,56.90
2018-11-03T22:29:50.416Z,57.40
2018-11-03T22:32:19.721Z,57.40
2018-11-03T22:34:49.072Z,57.50
2018-11-03T22:37:18.327Z,58.30
2018-11-03T22:39:47.554Z,58.40
2018-11-03T22:42:16.828Z,58.00
2018-11-03T22:44:46.058Z,58.10
2018-11-03T22:47:15.310Z,58.40
2018-11-03T22:49:44.571Z,58.00
2018-11-03T22:52:13.898Z,58.20
2018-11-03T22:54:49.535Z,58.50
2018-11-03T22:57:18.798Z,59.40
2018-11-03T22:59:48.444Z,58.80
2018-11-03T23:02:17.745Z,58.80
2018-11-03T23:04:46.976Z,59.00
2018-11-03T23:07:16.277Z,58.90
2018-11-03T23:09:45.515Z,58.60
2018-11-03T23:12:14.853Z,58.80
2018-11-03T23:14:44.073Z,58.80
2018-11-03T23:17:13.270Z,59.20
2018-11-03T23:19:42.500Z,59.00
2018-11-03T23:22:11.790Z,59.40
2018-11-03T23:24:41.000Z,59.10
2018-11-03T23:27:10.266Z,59.30
2018-11-03T23:29:39.535Z,59.00
2018-11-03T23:32:09.101Z,59.50
2018-11-03T23:34:38.318Z,59.10
2018-11-03T23:37:07.983Z,59.20
2018-11-03T23:39:37.290Z,58.90
2018-11-03T23:42:06.588Z,58.90
2018-11-03T23:44:35.816Z,59.00
2018-11-03T23:47:05.077Z,59.00
2018-11-03T23:49:34.310Z,59.10
2018-11-03T23:52:03.647Z,59.50
2018-11-03T23:54:32.896Z,59.20
2018-11-03T23:57:02.147Z,59.20
2018-11-03T23:59:31.520Z,59.40
